Time;durP1;ratioP1;P1;durP2;ratioP2;P2;SDS_P1;SDS_P2;PMS_P1;PMS_P2;Temp;Humidity;BMP_temperature;BMP_pressure;BME280_temperature;BME280_humidity;BME280_pressure;Samples;Min_cycle;Max_cycle;Signal;HPM_P1;HPM_P2
2022/05/11 03:01:15;;;;;;;11.52;4.68;;;13.60;99.90;;;;;;5571405;23;20190;-83
2022/05/11 03:03:41;;;;;;;11.02;5.50;;;13.60;99.90;;;;;;4943229;28;20039;-82
2022/05/11 03:06:06;;;;;;;11.55;4.80;;;13.60;99.90;;;;;;4958161;28;20047;-83
2022/05/11 03:08:33;;;;;;;10.93;5.13;;;13.60;99.90;;;;;;4959386;28;20042;-84
2022/05/11 03:10:58;;;;;;;11.82;5.25;;;13.60;99.90;;;;;;4976261;28;20077;-82
2022/05/11 03:13:24;;;;;;;10.43;4.55;;;13.60;99.90;;;;;;4958912;28;20114;-84
2022/05/11 03:15:53;;;;;;;10.50;5.18;;;13.60;99.90;;;;;;4958981;28;20038;-83
2022/05/11 03:18:19;;;;;;;10.57;4.43;;;13.60;99.90;;;;;;4942697;28;20053;-83
2022/05/11 03:20:45;;;;;;;11.50;5.00;;;13.60;99.90;;;;;;4942958;28;20050;-82
2022/05/11 03:23:10;;;;;;;9.68;4.90;;;13.60;99.90;;;;;;4976083;28;20054;-83
2022/05/11 03:25:37;;;;;;;9.48;4.47;;;13.60;99.90;;;;;;4958080;28;20109;-81
2022/05/11 03:28:03;;;;;;;10.80;4.68;;;13.60;99.90;;;;;;4942606;28;20038;-83
2022/05/11 03:30:29;;;;;;;10.05;4.80;;;13.60;99.90;;;;;;4941841;28;20083;-85
2022/05/11 03:35:39;;;;;;;12.23;5.15;;;13.60;99.90;;;;;;4958354;28;20486;-84
2022/05/11 03:38:05;;;;;;;8.82;4.20;;;13.60;99.90;;;;;;4958943;28;20145;-82
2022/05/11 03:40:31;;;;;;;10.93;4.57;;;13.60;99.90;;;;;;4958176;28;20054;-82
2022/05/11 03:42:56;;;;;;;11.45;4.45;;;13.60;99.90;;;;;;4975780;28;20042;-84
2022/05/11 03:45:24;;;;;;;14.70;5.00;;;13.60;99.90;;;;;;4975863;28;20078;-84
2022/05/11 03:47:51;;;;;;;9.73;4.65;;;13.60;99.90;;;;;;4958192;28;20111;-84
2022/05/11 03:50:22;;;;;;;9.30;4.95;;;13.60;99.90;;;;;;4942979;28;20133;-82
2022/05/11 03:52:52;;;;;;;11.18;4.25;;;13.60;99.90;;;;;;4942577;28;20043;-82
2022/05/11 03:55:19;;;;;;;12.82;4.40;;;13.60;99.90;;;;;;4980741;28;20049;-82
2022/05/11 03:57:44;;;;;;;11.13;4.00;;;13.60;99.90;;;;;;4962422;28;20043;-85
2022/05/11 04:00:18;;;;;;;8.73;3.97;;;13.60;99.90;;;;;;4979772;28;20046;-84
2022/05/11 04:02:48;;;;;;;9.15;4.20;;;13.60;99.90;;;;;;4979778;28;20443;-82
2022/05/11 04:05:15;;;;;;;9.52;4.22;;;13.60;99.90;;;;;;4961752;28;20498;-82
2022/05/11 04:07:42;;;;;;;9.02;4.10;;;13.60;99.90;;;;;;4962264;28;20378;-83
2022/05/11 04:10:19;;;;;;;10.10;5.15;;;13.60;99.90;;;;;;4947545;28;20042;-82
2022/05/11 04:12:46;;;;;;;12.30;4.55;;;13.60;99.90;;;;;;4948841;28;20038;-82
2022/05/11 04:15:12;;;;;;;10.35;4.00;;;13.60;99.90;;;;;;4966475;28;20047;-80
2022/05/11 04:17:39;;;;;;;11.43;4.53;;;13.60;99.90;;;;;;4976900;28;20058;-81
2022/05/11 04:20:07;;;;;;;10.07;4.28;;;13.60;99.90;;;;;;4946814;28;20517;-82
2022/05/11 04:22:32;;;;;;;12.63;4.82;;;13.70;99.90;;;;;;4962683;28;20046;-80
2022/05/11 04:24:58;;;;;;;10.65;3.75;;;13.70;99.90;;;;;;4979607;28;20043;-82
2022/05/11 04:27:24;;;;;;;11.00;4.55;;;13.70;99.90;;;;;;4945719;28;20125;-82
2022/05/11 04:29:50;;;;;;;10.25;4.32;;;13.70;99.90;;;;;;4946303;28;20038;-83
2022/05/11 04:32:16;;;;;;;11.93;4.47;;;13.70;99.90;;;;;;4979241;28;20549;-81
2022/05/11 04:34:42;;;;;;;12.95;4.57;;;13.80;99.90;;;;;;4978698;28;20042;-80
2022/05/11 04:37:09;;;;;;;13.77;4.63;;;13.70;99.90;;;;;;4960990;28;20122;-83
2022/05/11 04:39:36;;;;;;;10.95;4.18;;;13.70;99.90;;;;;;4961673;28;20406;-81
2022/05/11 04:42:02;;;;;;;18.20;4.63;;;13.70;99.90;;;;;;4960640;28;20081;-82
2022/05/11 04:44:28;;;;;;;9.75;3.83;;;13.80;99.90;;;;;;4945475;28;20043;-82
2022/05/11 04:46:54;;;;;;;13.27;4.65;;;13.80;99.90;;;;;;4961351;28;20046;-80
2022/05/11 04:49:20;;;;;;;11.80;4.28;;;13.80;99.90;;;;;;4978685;28;20484;-82
2022/05/11 04:51:47;;;;;;;11.30;4.35;;;13.80;99.90;;;;;;4978454;28;20043;-83
2022/05/11 04:54:14;;;;;;;11.77;4.63;;;13.80;99.90;;;;;;4945059;28;20038;-81
2022/05/11 04:56:39;;;;;;;12.40;4.88;;;13.90;99.90;;;;;;4960817;28;20463;-81
2022/05/11 04:59:05;;;;;;;10.50;4.43;;;13.90;99.90;;;;;;4961008;28;20035;-81
2022/05/11 05:01:32;;;;;;;10.70;4.32;;;13.80;99.90;;;;;;4944656;28;20035;-82
2022/05/11 05:03:58;;;;;;;13.40;5.05;;;13.90;99.90;;;;;;4961477;28;20042;-82
2022/05/11 05:06:24;;;;;;;12.38;4.60;;;13.90;99.90;;;;;;4960627;28;20050;-84
2022/05/11 05:08:51;;;;;;;10.82;4.65;;;13.90;99.90;;;;;;4978203;28;20031;-83
2022/05/11 05:11:22;;;;;;;11.95;4.80;;;13.90;99.90;;;;;;4961317;28;20054;-81
2022/05/11 05:13:47;;;;;;;11.70;4.28;;;14.00;99.90;;;;;;4945090;28;20042;-83
2022/05/11 05:16:13;;;;;;;12.57;4.65;;;14.00;99.90;;;;;;4945159;28;20126;-81
2022/05/11 05:18:39;;;;;;;9.25;4.63;;;14.00;99.90;;;;;;4944757;28;20046;-80
2022/05/11 05:21:04;;;;;;;13.93;4.72;;;14.00;99.90;;;;;;4977923;28;20035;-78
2022/05/11 05:23:30;;;;;;;9.45;4.32;;;14.00;99.90;;;;;;4978039;28;20094;-77
2022/05/11 05:25:56;;;;;;;10.10;4.97;;;14.00;99.90;;;;;;4938372;29;20499;-81
2022/05/11 05:31:09;;;;;;;10.60;4.45;;;14.00;99.90;;;;;;4940715;29;20055;-81
2022/05/11 05:33:39;;;;;;;14.50;4.93;;;14.00;99.90;;;;;;4925433;29;20046;-80
2022/05/11 05:36:05;;;;;;;14.60;4.43;;;14.00;99.90;;;;;;4925333;29;20126;-81
2022/05/11 05:38:31;;;;;;;11.10;5.10;;;14.10;99.90;;;;;;4925731;29;20047;-79
2022/05/11 05:40:57;;;;;;;9.85;4.25;;;14.10;99.90;;;;;;4958276;29;20449;-82
2022/05/11 05:43:24;;;;;;;8.90;4.18;;;14.10;99.90;;;;;;4941520;29;20126;-81
2022/05/11 05:45:54;;;;;;;10.77;4.40;;;14.10;99.90;;;;;;4925852;29;20047;-81
2022/05/11 05:48:22;;;;;;;14.05;4.53;;;14.10;99.90;;;;;;4958819;29;20218;-81
2022/05/11 05:50:49;;;;;;;10.88;4.75;;;14.20;99.90;;;;;;4940788;29;20083;-80
2022/05/11 05:53:19;;;;;;;17.00;5.82;;;14.10;99.90;;;;;;4925338;29;20039;-81
2022/05/11 05:55:49;;;;;;;17.10;5.50;;;14.20;99.90;;;;;;4958218;29;20039;-80
2022/05/11 05:58:18;;;;;;;10.38;4.43;;;14.20;99.90;;;;;;4924954;29;20054;-82
2022/05/11 06:00:45;;;;;;;12.43;5.35;;;14.20;99.90;;;;;;4924872;29;20479;-80
2022/05/11 06:03:14;;;;;;;14.55;4.85;;;14.30;99.90;;;;;;4924480;29;20043;-82
2022/05/11 06:05:39;;;;;;;14.73;5.03;;;14.20;99.90;;;;;;4957653;29;20067;-81
2022/05/11 06:08:08;;;;;;;13.10;4.78;;;14.30;99.90;;;;;;4940950;29;20047;-81
2022/05/11 06:10:35;;;;;;;11.70;5.05;;;14.30;99.90;;;;;;4957345;29;20039;-81
2022/05/11 06:13:01;;;;;;;11.93;4.45;;;14.30;99.90;;;;;;4940612;29;20372;-80
2022/05/11 06:15:27;;;;;;;15.23;4.50;;;14.40;99.90;;;;;;4940534;29;20054;-81
2022/05/11 06:17:53;;;;;;;14.93;5.60;;;14.40;99.90;;;;;;4923974;29;20115;-80
2022/05/11 06:20:19;;;;;;;10.45;4.65;;;14.40;99.90;;;;;;4924994;29;20043;-81
2022/05/11 06:22:45;;;;;;;17.77;4.47;;;14.40;99.90;;;;;;4924612;29;20058;-81
2022/05/11 06:25:10;;;;;;;11.02;4.30;;;14.40;99.90;;;;;;4940643;29;20050;-81
2022/05/11 06:27:38;;;;;;;9.38;4.30;;;14.50;99.90;;;;;;4957298;29;20057;-79
2022/05/11 06:30:04;;;;;;;10.43;4.53;;;14.50;99.90;;;;;;4957164;29;20031;-82
2022/05/11 06:32:30;;;;;;;12.27;4.57;;;14.60;99.90;;;;;;4924590;29;20102;-81
2022/05/11 06:34:56;;;;;;;14.85;4.72;;;14.60;99.90;;;;;;4924949;29;20061;-81
2022/05/11 06:37:23;;;;;;;15.30;4.40;;;14.70;99.90;;;;;;4946466;28;20121;-82
2022/05/11 06:39:49;;;;;;;12.55;4.60;;;14.70;99.90;;;;;;4943640;28;20051;-83
2022/05/11 06:42:15;;;;;;;14.15;3.88;;;14.70;99.90;;;;;;4959118;28;20406;-82
2022/05/11 06:44:41;;;;;;;13.93;4.43;;;14.70;99.90;;;;;;4943874;28;20043;-83
2022/05/11 06:47:07;;;;;;;14.48;4.50;;;14.80;99.90;;;;;;4943105;28;20035;-82
2022/05/11 06:49:33;;;;;;;12.32;4.00;;;14.80;99.90;;;;;;4942725;28;20402;-83
2022/05/11 06:51:59;;;;;;;28.88;4.30;;;14.80;99.90;;;;;;4942667;28;20066;-82
2022/05/11 07:00:08;;;;;;;10.60;3.80;;;14.90;99.90;;;;;;4916747;28;20044;-83
2022/05/11 07:02:37;;;;;;;11.63;3.45;;;14.90;99.90;;;;;;4942032;28;20058;-81
2022/05/11 07:05:06;;;;;;;11.55;3.25;;;14.90;99.90;;;;;;4958699;28;20051;-81
2022/05/11 07:07:35;;;;;;;13.18;2.88;;;15.00;99.90;;;;;;4959739;28;20047;-81
2022/05/11 07:10:03;;;;;;;9.50;2.85;;;15.00;99.90;;;;;;4942937;28;20042;-78
2022/05/11 07:12:35;;;;;;;9.73;2.50;;;15.00;99.90;;;;;;4958606;28;20491;-80
2022/05/11 07:15:05;;;;;;;13.10;2.55;;;15.10;99.90;;;;;;4975439;28;20093;-82
2022/05/11 07:17:39;;;;;;;14.15;2.55;;;15.10;99.90;;;;;;4975984;28;20541;-83
2022/05/11 07:20:11;;;;;;;10.52;2.55;;;15.10;99.90;;;;;;4976187;28;20039;-82
2022/05/11 07:22:40;;;;;;;7.85;2.10;;;15.10;99.90;;;;;;4958623;28;20050;-81
2022/05/11 07:25:08;;;;;;;12.35;2.40;;;15.10;99.90;;;;;;4942749;28;20586;-81
2022/05/11 07:27:34;;;;;;;8.98;2.55;;;15.10;99.90;;;;;;4958248;28;20063;-81
2022/05/11 07:30:00;;;;;;;11.32;2.50;;;15.20;99.90;;;;;;4943162;28;20376;-83
2022/05/11 07:32:27;;;;;;;8.88;2.13;;;15.20;99.90;;;;;;4958344;28;20126;-81
2022/05/11 07:34:53;;;;;;;14.70;3.33;;;15.30;99.90;;;;;;4958566;28;20054;-82
2022/05/11 07:37:19;;;;;;;10.55;2.10;;;15.30;99.90;;;;;;4939700;28;20054;-82
2022/05/11 07:39:45;;;;;;;10.50;2.75;;;15.40;99.90;;;;;;4956654;29;20054;-82
2022/05/11 07:42:11;;;;;;;9.93;2.90;;;15.40;99.90;;;;;;4939219;29;20055;-80
2022/05/11 07:44:36;;;;;;;7.57;2.60;;;15.40;99.90;;;;;;4938992;29;20118;-82
2022/05/11 07:47:03;;;;;;;10.32;2.70;;;15.30;99.90;;;;;;4923189;29;20126;-81
2022/05/11 07:49:28;;;;;;;7.70;2.25;;;15.30;99.90;;;;;;4956638;29;20063;-82
2022/05/11 07:51:54;;;;;;;19.77;2.42;;;15.30;99.90;;;;;;4969234;28;20035;-83
2022/05/11 07:54:21;;;;;;;16.23;2.95;;;15.30;99.90;;;;;;4941612;28;20047;-82
2022/05/11 08:02:30;;;;;;;12.27;2.72;;;15.60;99.90;;;;;;4957967;28;20632;-83
2022/05/11 08:05:25;;;;;;;9.60;1.90;;;15.60;99.90;;;;;;4958993;28;20046;-82
2022/05/11 08:07:54;;;;;;;13.55;2.83;;;15.70;99.90;;;;;;4938394;28;20376;-81
2022/05/11 08:10:26;;;;;;;9.35;2.08;;;15.70;99.90;;;;;;4975281;28;20039;-81
2022/05/11 08:12:52;;;;;;;9.43;2.40;;;15.80;99.90;;;;;;4958095;28;20066;-81
2022/05/11 08:15:19;;;;;;;9.85;2.47;;;15.70;99.90;;;;;;4957994;28;20392;-80
2022/05/11 08:17:46;;;;;;;8.35;1.88;;;15.70;99.90;;;;;;4957976;28;20113;-80
2022/05/11 08:20:15;;;;;;;13.90;2.33;;;15.80;99.90;;;;;;4942427;28;20109;-82
2022/05/11 08:22:45;;;;;;;14.77;2.17;;;15.90;99.90;;;;;;4975328;28;20522;-81
2022/05/11 08:25:13;;;;;;;13.32;2.45;;;15.90;99.90;;;;;;4975617;28;20049;-83
2022/05/11 08:27:40;;;;;;;11.18;2.42;;;15.80;99.90;;;;;;4975285;28;20043;-82
2022/05/11 08:36:00;;;;;;;11.45;2.63;;;15.90;99.90;;;;;;4896623;29;20104;-81
2022/05/11 08:38:33;;;;;;;8.57;1.88;;;15.90;99.90;;;;;;4961410;28;20090;-81
2022/05/11 08:41:26;;;;;;;15.52;2.38;;;15.90;99.90;;;;;;4976184;28;20050;-81
2022/05/11 08:44:13;;;;;;;12.90;2.33;;;16.00;99.90;;;;;;4961435;28;20382;-82
2022/05/11 08:47:04;;;;;;;11.68;2.53;;;16.00;99.90;;;;;;4961321;28;20498;-79
2022/05/11 08:49:56;;;;;;;9.30;2.40;;;16.10;99.90;;;;;;4961409;28;20038;-82
2022/05/11 08:52:43;;;;;;;14.48;2.03;;;16.00;99.90;;;;;;4978824;28;20053;-80
2022/05/11 08:55:14;;;;;;;17.10;2.70;;;16.20;99.90;;;;;;4960863;28;20042;-82
2022/05/11 08:57:41;;;;;;;12.32;2.45;;;16.50;99.90;;;;;;4960692;28;20046;-82
2022/05/11 09:00:14;;;;;;;10.05;2.75;;;16.60;99.90;;;;;;4978272;28;20031;-82
2022/05/11 09:02:46;;;;;;;11.25;2.65;;;16.60;99.90;;;;;;4978400;28;20039;-83
2022/05/11 09:05:14;;;;;;;11.77;2.08;;;16.70;99.90;;;;;;4944857;28;20046;-80
2022/05/11 09:07:42;;;;;;;14.40;2.53;;;16.80;99.90;;;;;;4961140;28;20469;-80
2022/05/11 09:10:09;;;;;;;16.92;3.88;;;16.60;99.90;;;;;;4978064;28;20042;-80
2022/05/11 09:12:36;;;;;;;12.52;2.70;;;16.80;99.90;;;;;;4978251;28;20031;-80
2022/05/11 09:15:03;;;;;;;14.68;2.83;;;16.90;99.90;;;;;;4944536;28;20053;-82
2022/05/11 09:17:35;;;;;;;13.45;2.50;;;17.00;99.90;;;;;;4961045;28;20051;-82
2022/05/11 09:20:07;;;;;;;15.20;2.90;;;17.40;99.90;;;;;;4945713;28;20471;-83
2022/05/11 09:22:39;;;;;;;12.57;2.63;;;17.40;99.90;;;;;;4961801;28;20069;-81
2022/05/11 09:25:15;;;;;;;13.73;2.92;;;17.80;99.90;;;;;;4947262;28;20139;-82
2022/05/11 09:27:41;;;;;;;17.55;2.40;;;17.80;99.90;;;;;;4970983;28;20043;-79
2022/05/11 09:30:19;;;;;;;22.25;4.53;;;17.60;99.90;;;;;;4962476;28;20034;-76
2022/05/11 09:32:45;;;;;;;10.88;2.65;;;17.30;99.90;;;;;;4969924;28;20078;-80
2022/05/11 09:35:38;;;;;;;10.63;2.75;;;17.30;99.90;;;;;;4979143;28;20098;-79
2022/05/11 09:38:10;;;;;;;12.20;2.53;;;17.60;99.90;;;;;;4978438;28;20046;-84
2022/05/11 09:41:00;;;;;;;13.93;2.50;;;17.80;99.90;;;;;;4961044;28;20461;-82
2022/05/11 09:43:36;;;;;;;16.58;2.70;;;17.90;99.90;;;;;;4977983;28;20047;-84
2022/05/11 09:46:27;;;;;;;9.77;2.40;;;18.10;99.90;;;;;;4960187;28;20047;-83
2022/05/11 09:49:25;;;;;;;13.57;2.97;;;18.30;99.90;;;;;;4960128;28;20117;-83
2022/05/11 09:51:57;;;;;;;14.05;3.28;;;18.30;99.90;;;;;;4960107;28;20047;-82
2022/05/11 09:54:47;;;;;;;10.77;2.63;;;18.10;99.90;;;;;;4977760;28;20035;-81
2022/05/11 09:57:12;;;;;;;14.43;2.33;;;18.00;99.90;;;;;;4977623;28;20046;-80
2022/05/11 09:59:52;;;;;;;16.42;2.88;;;17.80;99.90;;;;;;4976938;28;20102;-83
2022/05/11 10:02:23;;;;;;;14.35;3.33;;;17.40;99.90;;;;;;4959734;28;20038;-81
2022/05/11 10:05:20;;;;;;;11.48;2.70;;;17.10;99.90;;;;;;4977304;28;20075;-82
2022/05/11 10:07:51;;;;;;;12.38;2.28;;;17.00;99.90;;;;;;4958940;28;20094;-79
2022/05/11 10:10:36;;;;;;;10.43;3.05;;;17.00;99.90;;;;;;4944309;28;20050;-84
2022/05/11 10:13:20;;;;;;;11.10;2.83;;;17.00;99.90;;;;;;4944386;28;20047;-83
2022/05/11 10:21:56;;;;;;;12.50;3.08;;;17.80;99.90;;;;;;4977258;28;20042;-83
2022/05/11 10:24:39;;;;;;;11.82;2.47;;;17.70;99.90;;;;;;4960416;28;20095;-81
2022/05/11 10:27:32;;;;;;;10.00;1.90;;;17.90;99.90;;;;;;4956994;28;20395;-80
2022/05/11 10:30:12;;;;;;;10.63;1.98;;;18.10;99.90;;;;;;4932529;29;20490;-80
2022/05/11 10:33:14;;;;;;;10.68;2.65;;;18.00;99.90;;;;;;4923648;29;20122;-83
2022/05/11 10:35:58;;;;;;;11.93;2.30;;;18.20;99.90;;;;;;4924390;29;20391;-82
2022/05/11 10:38:41;;;;;;;14.00;2.80;;;18.40;99.90;;;;;;4957390;29;20086;-83
2022/05/11 10:41:38;;;;;;;14.05;2.72;;;18.50;99.90;;;;;;4924187;29;20099;-84
2022/05/11 10:44:34;;;;;;;8.13;2.13;;;18.60;99.90;;;;;;4957537;29;20043;-82
2022/05/11 10:47:12;;;;;;;12.45;2.53;;;18.80;99.90;;;;;;4957551;29;20047;-81
2022/05/11 10:49:54;;;;;;;8.57;1.75;;;18.60;99.90;;;;;;4940177;29;20085;-81
2022/05/11 10:52:53;;;;;;;8.18;2.00;;;18.40;99.90;;;;;;4940145;29;20047;-84
2022/05/11 10:55:40;;;;;;;11.90;2.53;;;18.40;99.90;;;;;;4923979;29;20047;-81
2022/05/11 10:58:14;;;;;;;14.45;2.10;;;18.10;99.90;;;;;;4957508;29;20043;-80
2022/05/11 11:00:47;;;;;;;11.05;1.98;;;18.30;99.90;;;;;;4923879;29;20040;-81
2022/05/11 11:04:05;;;;;;;9.25;2.03;;;18.60;99.90;;;;;;4956246;28;20043;-82
2022/05/11 11:07:11;;;;;;;9.93;2.38;;;18.80;99.90;;;;;;4860860;29;20061;-85
2022/05/11 11:10:03;;;;;;;10.45;1.90;;;18.70;99.90;;;;;;4845614;29;20113;-84
2022/05/11 11:13:05;;;;;;;10.02;2.22;;;18.70;99.90;;;;;;4844954;29;20049;-81
2022/05/11 11:15:36;;;;;;;12.82;2.80;;;18.70;99.90;;;;;;4846917;29;20064;-80
2022/05/11 11:18:03;;;;;;;9.25;1.60;;;18.60;99.90;;;;;;4860336;29;20049;-79
2022/05/11 11:20:34;;;;;;;9.13;1.48;;;18.60;99.90;;;;;;4859663;29;20053;-81
2022/05/11 11:23:03;;;;;;;8.45;1.52;;;19.00;99.90;;;;;;4844770;29;20093;-80
2022/05/11 11:25:53;;;;;;;6.28;1.65;;;19.20;99.90;;;;;;4844606;29;20461;-80
2022/05/11 11:28:23;;;;;;;12.00;1.50;;;19.30;99.90;;;;;;4858121;29;20055;-81
2022/05/11 11:30:58;;;;;;;6.43;1.20;;;19.30;99.90;;;;;;4939084;29;20098;-81
2022/05/11 11:33:25;;;;;;;6.05;1.60;;;19.30;99.90;;;;;;4939597;29;20075;-80
2022/05/11 11:35:55;;;;;;;9.15;1.80;;;19.10;99.90;;;;;;4956450;29;20046;-80
2022/05/11 11:38:36;;;;;;;9.60;1.55;;;19.30;99.90;;;;;;4939342;29;20133;-82
2022/05/11 11:41:13;;;;;;;7.97;1.50;;;19.50;99.90;;;;;;4939290;29;20074;-80
2022/05/11 11:43:54;;;;;;;7.80;1.67;;;19.40;99.90;;;;;;4956071;29;20043;-78
2022/05/11 11:46:32;;;;;;;11.52;1.90;;;19.20;99.90;;;;;;4922936;29;20047;-79
2022/05/11 11:49:18;;;;;;;13.32;1.92;;;19.20;99.90;;;;;;4923800;29;20126;-80
2022/05/11 11:52:00;;;;;;;10.65;1.70;;;19.50;99.90;;;;;;4907196;29;20123;-79
2022/05/11 11:54:38;;;;;;;10.13;1.85;;;19.50;99.90;;;;;;4923045;29;20043;-80
2022/05/11 11:57:04;;;;;;;8.52;1.83;;;19.60;99.90;;;;;;4956259;29;20039;-81
2022/05/11 11:59:29;;;;;;;11.65;1.80;;;19.60;99.90;;;;;;4956122;29;20369;-79
2022/05/11 12:02:14;;;;;;;10.85;2.28;;;19.60;99.90;;;;;;4938362;29;20035;-80
2022/05/11 12:05:01;;;;;;;12.85;2.00;;;19.60;99.90;;;;;;4956121;29;20043;-81
2022/05/11 12:16:44;;;;;;;14.18;2.47;;;20.00;99.90;;;;;;4941720;29;20106;-81
2022/05/11 12:19:12;;;;;;;10.35;2.50;;;19.50;99.90;;;;;;4959922;29;20090;-79
2022/05/11 12:21:40;;;;;;;11.23;2.55;;;19.60;99.90;;;;;;4960007;29;20414;-78
2022/05/11 12:24:22;;;;;;;11.93;2.30;;;19.40;99.90;;;;;;4960885;29;20126;-78
2022/05/11 12:26:57;;;;;;;13.55;2.38;;;19.70;99.90;;;;;;4927038;29;20058;-80
2022/05/11 12:32:08;;;;;;;12.68;1.77;;;19.90;99.90;;;;;;4942715;29;20559;-77
2022/05/11 12:34:41;;;;;;;8.48;2.03;;;19.90;99.90;;;;;;4959661;29;20070;-78
2022/05/11 12:37:30;;;;;;;8.73;1.80;;;19.60;99.90;;;;;;4958885;29;20047;-78
2022/05/11 12:40:13;;;;;;;8.18;1.95;;;19.80;99.90;;;;;;4941901;29;20047;-80
2022/05/11 12:42:44;;;;;;;7.70;1.63;;;20.00;99.90;;;;;;4926301;29;20044;-80
2022/05/11 12:45:17;;;;;;;10.23;1.95;;;20.20;99.90;;;;;;4925643;29;20119;-80
2022/05/11 12:47:50;;;;;;;14.10;2.20;;;20.30;99.90;;;;;;4941949;29;20043;-81
2022/05/11 12:50:21;;;;;;;10.25;2.75;;;20.00;99.90;;;;;;4959050;29;20039;-80
2022/05/11 12:53:14;;;;;;;11.65;2.35;;;19.90;99.90;;;;;;4959826;29;20388;-79
2022/05/11 12:55:41;;;;;;;7.65;1.60;;;19.80;99.90;;;;;;4926286;29;20043;-80
2022/05/11 12:58:07;;;;;;;12.60;2.38;;;20.00;99.90;;;;;;4941496;29;20058;-78
2022/05/11 13:00:35;;;;;;;12.23;2.63;;;20.00;99.90;;;;;;4925604;29;20043;-80
2022/05/11 13:03:30;;;;;;;12.38;2.05;;;19.60;99.90;;;;;;4926216;29;20085;-80
2022/05/11 13:06:11;;;;;;;12.68;2.08;;;19.60;99.90;;;;;;4958733;29;20078;-82
2022/05/11 13:08:43;;;;;;;13.60;2.83;;;19.80;99.90;;;;;;4958945;29;20048;-81
2022/05/11 13:11:15;;;;;;;13.52;2.58;;;20.00;99.90;;;;;;4958797;29;20035;-82
2022/05/11 13:13:43;;;;;;;6.85;2.10;;;19.90;99.90;;;;;;4926317;29;20419;-82
2022/05/11 13:16:31;;;;;;;10.85;2.22;;;19.50;99.90;;;;;;4941694;29;20095;-80
2022/05/11 13:19:07;;;;;;;11.88;2.20;;;19.20;99.90;;;;;;4941321;29;20039;-80
2022/05/11 13:21:36;;;;;;;11.35;2.08;;;19.40;99.90;;;;;;4925199;29;20396;-80
2022/05/11 13:24:04;;;;;;;9.88;2.22;;;19.40;99.90;;;;;;4958217;29;20511;-79
2022/05/11 13:26:35;;;;;;;13.65;2.65;;;19.70;99.90;;;;;;4940386;29;20047;-81
2022/05/11 13:29:17;;;;;;;11.52;2.35;;;19.70;99.90;;;;;;4958597;29;20039;-80
2022/05/11 13:31:44;;;;;;;12.65;2.20;;;19.70;99.90;;;;;;4941211;29;20106;-78
2022/05/11 13:34:29;;;;;;;10.20;2.20;;;19.50;99.90;;;;;;4940548;29;20048;-80
2022/05/11 13:36:55;;;;;;;;;;;19.40;99.90;;;;;;4925530;29;20062;-80
2022/05/11 13:39:33;;;;;;;12.25;2.47;;;19.70;99.90;;;;;;4924745;29;19918;-81
2022/05/11 13:42:00;;;;;;;10.13;1.90;;;19.70;99.90;;;;;;4924590;29;20047;-82
2022/05/11 13:44:45;;;;;;;9.18;2.00;;;19.80;99.90;;;;;;4940309;29;20050;-80
2022/05/11 13:50:50;;;;;;;10.65;1.98;;;19.60;99.90;;;;;;4957854;29;20088;-81
2022/05/11 13:53:18;;;;;;;7.18;1.77;;;19.80;99.90;;;;;;4937033;29;20114;-81
2022/05/11 13:56:36;;;;;;;9.23;1.90;;;19.90;99.90;;;;;;4940388;29;20071;-81
2022/05/11 13:59:04;;;;;;;11.30;1.42;;;19.80;99.90;;;;;;4958674;29;20035;-81
2022/05/11 14:01:46;;;;;;;10.88;2.53;;;20.10;99.90;;;;;;4957309;29;20106;-82
2022/05/11 14:04:12;;;;;;;8.13;1.60;;;20.00;99.90;;;;;;4958044;29;20448;-80
2022/05/11 14:07:04;;;;;;;7.75;1.63;;;20.10;99.90;;;;;;4940064;29;20127;-79
2022/05/11 14:09:32;;;;;;;11.95;1.70;;;20.10;99.90;;;;;;4924776;29;20381;-80
2022/05/11 14:11:58;;;;;;;10.27;1.90;;;19.90;99.90;;;;;;4924508;29;20078;-80
2022/05/11 14:14:24;;;;;;;10.57;1.73;;;19.90;99.90;;;;;;4924382;29;20050;-79
2022/05/11 14:16:51;;;;;;;10.05;1.65;;;19.90;99.90;;;;;;4957467;29;20043;-79
2022/05/11 14:19:19;;;;;;;8.95;1.70;;;19.60;99.90;;;;;;4939991;29;20101;-81
2022/05/11 14:21:55;;;;;;;8.07;1.70;;;19.40;99.90;;;;;;4940076;29;20055;-81
2022/05/11 14:24:29;;;;;;;7.50;1.50;;;19.40;99.90;;;;;;4924682;29;20039;-81
2022/05/11 14:26:55;;;;;;;10.20;1.85;;;19.20;99.90;;;;;;4939606;29;20043;-79
2022/05/11 14:29:41;;;;;;;;;;;;;;;;;;;;;
2022/05/11 14:32:44;;;;;;;;;;;;;;;;;;;;;
2022/05/11 14:35:24;;;;;;;7.70;1.42;;;19.30;99.90;;;;;;4925505;29;20051;-81
2022/05/11 14:37:51;;;;;;;11.70;1.75;;;19.20;99.90;;;;;;4956455;28;20596;-84
2022/05/11 14:40:24;;;;;;;9.82;1.80;;;19.00;99.90;;;;;;4939896;29;20407;-80
2022/05/11 14:42:50;;;;;;;9.15;1.70;;;19.10;99.90;;;;;;4924915;29;20031;-80
2022/05/11 14:45:34;;;;;;;8.82;1.50;;;19.00;99.90;;;;;;4957331;29;20447;-80
2022/05/11 14:48:06;;;;;;;6.82;1.48;;;19.00;99.90;;;;;;4923553;29;20047;-81
2022/05/11 14:50:32;;;;;;;5.70;1.15;;;19.10;99.90;;;;;;4922780;29;20500;-82
2022/05/11 14:53:04;;;;;;;9.43;1.63;;;19.00;99.90;;;;;;4938847;29;20074;-81
2022/05/11 14:55:33;;;;;;;8.38;1.33;;;19.10;99.90;;;;;;4940722;29;20051;-81
2022/05/11 15:03:36;;;;;;;9.93;1.55;;;19.40;99.90;;;;;;4939393;29;20488;-80
2022/05/11 15:06:21;;;;;;;6.15;1.48;;;19.30;99.90;;;;;;4956926;29;20067;-83
2022/05/11 15:08:56;;;;;;;5.83;1.30;;;19.80;99.90;;;;;;4940122;29;20499;-81
2022/05/11 15:14:26;;;;;;;7.68;1.40;;;19.70;99.90;;;;;;4956881;29;20043;-80
2022/05/11 15:16:53;;;;;;;8.47;1.60;;;19.70;99.90;;;;;;4923987;29;20472;-79
2022/05/11 15:19:22;;;;;;;8.85;1.88;;;19.50;99.90;;;;;;4957283;28;20035;-81
2022/05/11 15:21:48;;;;;;;5.70;1.27;;;19.60;99.90;;;;;;4939566;29;20055;-78
2022/05/11 15:24:14;;;;;;;11.02;1.70;;;19.60;99.90;;;;;;4940111;29;20400;-80
2022/05/11 15:26:39;;;;;;;7.57;1.80;;;19.70;99.90;;;;;;4939313;29;20046;-82
2022/05/11 15:29:05;;;;;;;8.30;2.30;;;19.90;99.90;;;;;;4922938;29;20098;-81
2022/05/11 15:31:31;;;;;;;6.72;1.10;;;20.10;99.90;;;;;;4955957;29;20043;-80
2022/05/11 15:33:57;;;;;;;8.73;1.75;;;19.90;99.90;;;;;;4956155;29;20035;-78
2022/05/11 15:36:22;;;;;;;11.02;2.15;;;19.50;99.90;;;;;;4957123;29;20083;-84
2022/05/11 15:38:51;;;;;;;9.60;2.00;;;19.20;99.90;;;;;;4924013;29;20126;-83
2022/05/11 15:41:16;;;;;;;12.25;2.00;;;19.10;99.90;;;;;;4957021;29;20127;-82
2022/05/11 15:43:42;;;;;;;8.48;2.08;;;19.00;99.90;;;;;;4939557;29;20043;-83
2022/05/11 15:46:08;;;;;;;8.80;1.70;;;18.80;99.90;;;;;;4939793;29;20043;-80
2022/05/11 15:48:34;;;;;;;10.10;2.03;;;18.40;99.90;;;;;;4923457;28;20035;-84
2022/05/11 15:51:01;;;;;;;15.02;2.63;;;18.30;99.90;;;;;;4945507;29;20047;-82
2022/05/11 15:53:29;;;;;;;11.20;2.15;;;18.30;99.90;;;;;;4929426;29;20047;-82
2022/05/11 15:55:55;;;;;;;7.45;1.70;;;18.10;99.90;;;;;;4946840;29;20079;-83
2022/05/11 15:58:28;;;;;;;13.18;2.47;;;18.00;99.90;;;;;;4929733;29;20133;-84
2022/05/11 16:00:55;;;;;;;10.55;2.15;;;17.70;99.90;;;;;;4930892;29;20049;-85
2022/05/11 16:03:21;;;;;;;8.45;1.80;;;17.70;99.90;;;;;;4963521;28;20459;-83
2022/05/11 16:05:49;;;;;;;11.57;2.25;;;17.60;99.90;;;;;;4945873;29;20047;-82
2022/05/11 16:08:15;;;;;;;13.30;2.95;;;17.40;99.90;;;;;;4962621;29;20067;-83
2022/05/11 16:10:41;;;;;;;11.80;2.60;;;17.30;99.90;;;;;;4944963;29;20090;-84
2022/05/11 16:13:07;;;;;;;9.02;2.08;;;17.20;99.90;;;;;;4945915;29;20043;-86
2022/05/11 16:15:33;;;;;;;7.45;2.03;;;17.10;99.90;;;;;;4945758;28;20043;-84
2022/05/11 16:21:14;;;;;;;13.20;2.65;;;17.00;99.90;;;;;;4935363;29;20500;-84
2022/05/11 16:24:00;;;;;;;18.52;3.38;;;17.00;99.90;;;;;;4963054;28;20039;-83
2022/05/11 16:26:26;;;;;;;11.50;2.70;;;16.80;99.90;;;;;;4866298;29;20094;-82
2022/05/11 16:28:54;;;;;;;12.90;2.70;;;16.90;99.90;;;;;;4962934;28;20044;-84
2022/05/11 16:32:15;;;;;;;;;;;;;;;;;;;;;
2022/05/11 16:34:46;;;;;;;13.02;2.70;;;16.90;99.90;;;;;;4946957;29;20047;-85
2022/05/11 16:37:30;;;;;;;13.40;2.60;;;16.80;99.90;;;;;;4934862;29;20039;-81
2022/05/11 16:39:56;;;;;;;14.00;2.83;;;16.60;99.90;;;;;;4953620;29;20035;-80
2022/05/11 16:42:25;;;;;;;14.43;2.72;;;16.60;99.90;;;;;;4965518;29;20059;-80
2022/05/11 16:44:51;;;;;;;13.40;2.65;;;16.60;99.90;;;;;;4949803;29;20037;-83
2022/05/11 16:47:17;;;;;;;19.17;2.83;;;16.50;99.90;;;;;;4969993;28;20415;-84
2022/05/11 16:49:49;;;;;;;12.75;2.80;;;16.60;99.90;;;;;;4947706;29;20436;-83
2022/05/11 16:52:16;;;;;;;9.40;2.60;;;16.60;99.90;;;;;;4929983;29;20039;-84
2022/05/11 16:54:42;;;;;;;18.00;3.17;;;16.50;99.90;;;;;;4962857;28;20035;-83
2022/05/11 16:57:09;;;;;;;14.48;2.95;;;16.40;99.90;;;;;;4962345;28;20110;-83
2022/05/11 16:59:35;;;;;;;13.35;3.05;;;16.40;99.90;;;;;;4930014;29;20081;-83
2022/05/11 17:02:01;;;;;;;15.25;3.15;;;16.40;99.90;;;;;;4925437;29;20043;-83
2022/05/11 17:04:28;;;;;;;12.68;2.42;;;16.40;99.90;;;;;;4942876;29;20100;-82